Time;durP1;ratioP1;P1;durP2;ratioP2;P2;SDS_P1;SDS_P2;PMS_P1;PMS_P2;Temp;Humidity;BMP_temperature;BMP_pressure;BME280_temperature;BME280_humidity;BME280_pressure;Samples;Min_cycle;Max_cycle;Signal;HPM_P1;HPM_P2
2022/10/29 00:00:30;;;;;;;4.97;2.13;;;13.10;99.90;;;;;;4995899;28;20566;-89
2022/10/29 00:03:01;;;;;;;3.73;2.10;;;13.10;99.90;;;;;;4993338;28;20207;-92
2022/10/29 00:05:32;;;;;;;3.00;2.53;;;13.00;99.90;;;;;;4996683;28;20230;-93
2022/10/29 00:08:06;;;;;;;3.27;2.30;;;13.00;99.90;;;;;;4995138;28;20206;-92
2022/10/29 00:10:37;;;;;;;3.70;2.53;;;13.10;99.90;;;;;;5000569;28;20216;-93
2022/10/29 00:13:09;;;;;;;3.60;2.37;;;13.20;99.90;;;;;;4994111;28;20202;-94
2022/10/29 00:15:42;;;;;;;5.07;2.57;;;13.20;99.90;;;;;;5012223;28;20278;-92
2022/10/29 00:18:13;;;;;;;3.40;2.67;;;13.30;99.90;;;;;;5017322;28;20232;-92
2022/10/29 00:20:47;;;;;;;4.17;2.40;;;13.30;99.90;;;;;;5008780;28;20206;-92
2022/10/29 00:23:20;;;;;;;2.63;2.43;;;13.30;99.90;;;;;;4999047;28;20217;-92
2022/10/29 00:25:51;;;;;;;3.03;2.50;;;13.30;99.90;;;;;;5009372;28;20217;-94
2022/10/29 00:28:22;;;;;;;3.10;2.63;;;13.30;99.90;;;;;;5011194;28;20199;-92
2022/10/29 00:30:54;;;;;;;5.60;2.80;;;13.30;99.90;;;;;;4999075;28;20651;-94
2022/10/29 00:33:26;;;;;;;2.90;2.50;;;13.30;99.90;;;;;;4997381;28;20866;-91
2022/10/29 00:35:59;;;;;;;3.47;2.80;;;13.20;99.90;;;;;;4997809;28;20642;-91
2022/10/29 00:38:34;;;;;;;3.40;2.57;;;13.20;99.90;;;;;;4992358;28;20214;-91
2022/10/29 00:41:07;;;;;;;6.77;2.93;;;13.10;99.90;;;;;;4999138;28;20216;-94
2022/10/29 00:43:43;;;;;;;3.57;2.67;;;12.90;99.90;;;;;;4999251;28;20218;-94
2022/10/29 00:46:27;;;;;;;7.00;2.67;;;12.70;99.90;;;;;;5002687;28;20190;-94
2022/10/29 00:49:01;;;;;;;3.03;2.57;;;12.50;99.90;;;;;;5003560;28;20202;-94
2022/10/29 00:51:33;;;;;;;2.90;2.50;;;12.40;99.90;;;;;;5005533;28;20278;-94
2022/10/29 00:54:14;;;;;;;4.77;3.00;;;12.20;99.90;;;;;;5008900;28;20206;-93
2022/10/29 00:56:52;;;;;;;4.50;2.80;;;12.10;99.90;;;;;;5005588;28;20325;-92
2022/10/29 00:59:23;;;;;;;4.23;2.97;;;12.00;99.90;;;;;;4996831;28;20210;-86
2022/10/29 01:01:54;;;;;;;5.33;3.47;;;11.80;99.90;;;;;;4994533;28;20227;-88
2022/10/29 01:04:26;;;;;;;3.47;3.17;;;11.70;99.90;;;;;;4995287;28;20206;-86
2022/10/29 01:06:58;;;;;;;3.53;2.90;;;11.60;99.90;;;;;;4993970;28;20203;-86
2022/10/29 01:09:32;;;;;;;4.20;3.40;;;11.50;99.90;;;;;;4975134;28;20211;-86
2022/10/29 01:12:19;;;;;;;5.70;3.00;;;11.40;99.90;;;;;;4973871;28;20219;-86
2022/10/29 01:15:01;;;;;;;5.83;3.43;;;11.20;99.90;;;;;;4974827;28;20211;-85
2022/10/29 01:17:41;;;;;;;4.07;3.30;;;11.10;99.90;;;;;;4974348;28;20231;-86
2022/10/29 01:20:37;;;;;;;5.73;2.47;;;11.00;99.90;;;;;;4974529;28;20577;-85
2022/10/29 01:23:38;;;;;;;3.80;3.10;;;10.90;99.90;;;;;;4981167;28;20213;-85
2022/10/29 01:26:31;;;;;;;4.80;4.30;;;10.90;99.90;;;;;;4993643;28;20206;-85
2022/10/29 01:29:20;;;;;;;6.03;3.93;;;10.80;99.90;;;;;;4994582;28;20206;-85
2022/10/29 01:31:55;;;;;;;4.90;3.87;;;10.70;99.90;;;;;;4995051;28;20746;-86
2022/10/29 01:34:34;;;;;;;6.53;3.47;;;10.70;99.90;;;;;;4996642;28;20209;-86
2022/10/29 01:37:13;;;;;;;4.20;2.43;;;10.60;99.90;;;;;;4993610;28;20733;-86
2022/10/29 01:39:53;;;;;;;5.80;3.10;;;10.50;99.90;;;;;;4996675;28;20217;-86
2022/10/29 01:42:29;;;;;;;4.30;3.40;;;10.40;99.90;;;;;;4996066;28;20265;-86
2022/10/29 01:45:12;;;;;;;2.80;2.43;;;10.40;99.90;;;;;;4996484;28;20198;-85
2022/10/29 01:47:51;;;;;;;5.97;3.10;;;10.30;99.90;;;;;;4994163;28;20210;-85
2022/10/29 01:50:26;;;;;;;4.47;3.80;;;10.20;99.90;;;;;;4994311;28;20225;-85
2022/10/29 01:52:57;;;;;;;6.70;4.90;;;10.20;99.90;;;;;;4993530;28;20206;-86
2022/10/29 01:55:34;;;;;;;6.20;5.60;;;10.10;99.90;;;;;;4992601;28;20218;-86
2022/10/29 01:58:06;;;;;;;10.47;6.07;;;10.10;99.90;;;;;;4992544;28;20237;-86
2022/10/29 02:00:44;;;;;;;7.97;5.83;;;10.00;99.90;;;;;;4994205;28;20238;-86
2022/10/29 02:03:29;;;;;;;7.80;5.53;;;9.90;99.90;;;;;;4992851;28;20217;-86
2022/10/29 02:06:10;;;;;;;5.93;5.03;;;9.80;99.90;;;;;;4984445;28;20211;-84
2022/10/29 02:08:52;;;;;;;5.60;4.37;;;9.70;99.90;;;;;;4974134;28;20768;-86
2022/10/29 02:11:28;;;;;;;6.97;4.60;;;9.60;99.90;;;;;;4974155;28;20219;-86
2022/10/29 02:14:04;;;;;;;5.43;4.70;;;9.50;99.90;;;;;;4973318;28;20246;-86
2022/10/29 02:16:35;;;;;;;5.10;4.47;;;9.50;99.90;;;;;;4973918;28;20206;-87
2022/10/29 02:19:08;;;;;;;6.37;4.67;;;9.50;99.90;;;;;;4974230;28;20222;-86
2022/10/29 02:21:39;;;;;;;5.37;4.47;;;9.40;99.90;;;;;;4974458;28;20226;-86
2022/10/29 02:24:10;;;;;;;7.30;5.23;;;9.40;99.90;;;;;;4973408;28;20203;-85
2022/10/29 02:26:42;;;;;;;6.27;4.50;;;9.40;99.90;;;;;;4977646;28;20256;-85
2022/10/29 02:29:13;;;;;;;8.30;6.10;;;9.40;99.90;;;;;;4977413;28;20222;-86
2022/10/29 02:31:44;;;;;;;11.40;7.90;;;9.40;99.90;;;;;;4977937;28;20720;-85
2022/10/29 02:34:17;;;;;;;8.33;7.57;;;9.30;99.90;;;;;;4976553;28;20225;-85
2022/10/29 02:36:49;;;;;;;8.73;6.70;;;9.30;99.90;;;;;;4993142;28;20210;-86
2022/10/29 02:39:20;;;;;;;8.40;6.87;;;9.30;99.90;;;;;;4996940;28;20198;-86
2022/10/29 02:41:51;;;;;;;7.73;6.10;;;9.30;99.90;;;;;;4996734;28;20234;-85
2022/10/29 02:44:22;;;;;;;6.87;4.83;;;9.30;99.90;;;;;;4996700;28;20210;-85
2022/10/29 02:46:53;;;;;;;4.77;4.27;;;9.20;99.90;;;;;;4997794;28;20214;-86
2022/10/29 02:49:26;;;;;;;5.60;4.73;;;9.20;99.90;;;;;;4996255;28;20218;-87
2022/10/29 02:51:58;;;;;;;5.53;4.27;;;9.20;99.90;;;;;;4996317;28;20222;-87
2022/10/29 02:54:29;;;;;;;5.33;3.67;;;9.20;99.90;;;;;;4995929;28;20206;-86
2022/10/29 02:57:00;;;;;;;5.20;4.70;;;9.20;99.90;;;;;;4999215;28;20280;-85
2022/10/29 02:59:31;;;;;;;7.80;5.77;;;9.10;99.90;;;;;;4998688;28;20565;-87
2022/10/29 03:02:03;;;;;;;5.10;4.47;;;9.10;99.90;;;;;;5015348;28;20198;-84
2022/10/29 03:04:38;;;;;;;5.20;4.20;;;9.10;99.90;;;;;;5016639;28;20213;-85
2022/10/29 03:07:09;;;;;;;4.77;3.40;;;9.10;99.90;;;;;;5000301;28;20210;-86
2022/10/29 03:09:40;;;;;;;4.63;3.47;;;9.00;99.90;;;;;;4996157;28;20635;-85
2022/10/29 03:12:10;;;;;;;4.67;3.90;;;9.00;99.90;;;;;;4995571;28;20232;-86
2022/10/29 03:14:41;;;;;;;6.90;3.37;;;9.00;99.90;;;;;;4996457;28;20659;-86
2022/10/29 03:17:13;;;;;;;6.67;4.53;;;9.00;99.90;;;;;;4996411;28;20226;-86
2022/10/29 03:19:46;;;;;;;7.13;6.43;;;8.90;99.90;;;;;;4996500;28;20214;-85
2022/10/29 03:22:17;;;;;;;6.37;5.77;;;8.90;99.90;;;;;;4995174;28;20217;-88
2022/10/29 03:24:48;;;;;;;6.40;5.33;;;8.90;99.90;;;;;;4995938;28;20218;-87
2022/10/29 03:27:19;;;;;;;8.07;4.97;;;8.90;99.90;;;;;;4976052;28;20750;-85
2022/10/29 03:29:50;;;;;;;4.63;4.20;;;8.90;99.90;;;;;;4991636;28;20213;-86
2022/10/29 03:32:21;;;;;;;7.00;4.60;;;8.90;99.90;;;;;;4993874;28;20218;-84
2022/10/29 03:34:56;;;;;;;6.77;4.60;;;8.90;99.90;;;;;;4996064;28;20217;-84
2022/10/29 03:37:29;;;;;;;4.50;3.77;;;8.90;99.90;;;;;;4994174;28;20221;-85
2022/10/29 03:40:00;;;;;;;6.50;4.07;;;8.90;99.90;;;;;;5006606;28;20206;-84
2022/10/29 03:42:31;;;;;;;6.30;4.20;;;8.80;99.90;;;;;;5014480;28;20208;-86
2022/10/29 03:45:03;;;;;;;5.13;4.10;;;8.80;99.90;;;;;;4996474;28;20202;-85
2022/10/29 03:47:35;;;;;;;4.57;3.63;;;8.80;99.90;;;;;;4995710;28;20206;-85
2022/10/29 03:50:09;;;;;;;8.67;3.93;;;8.80;99.90;;;;;;4995827;28;20259;-85
2022/10/29 03:52:43;;;;;;;6.20;4.07;;;8.80;99.90;;;;;;4994753;28;20210;-85
2022/10/29 03:55:15;;;;;;;6.87;4.03;;;8.80;99.90;;;;;;4995736;28;20686;-85
2022/10/29 03:57:46;;;;;;;6.77;4.07;;;8.80;99.90;;;;;;4995848;28;20214;-84
2022/10/29 04:00:20;;;;;;;7.20;4.97;;;8.70;99.90;;;;;;4972298;28;20640;-85
2022/10/29 04:02:51;;;;;;;6.53;5.10;;;8.70;99.90;;;;;;4973987;28;20211;-85
2022/10/29 04:05:25;;;;;;;7.23;5.30;;;8.60;99.90;;;;;;4976288;28;20211;-86
2022/10/29 04:07:56;;;;;;;6.53;4.40;;;8.60;99.90;;;;;;4976039;28;20239;-85
2022/10/29 04:10:27;;;;;;;7.37;5.40;;;8.60;99.90;;;;;;4976003;28;20229;-87
2022/10/29 04:12:58;;;;;;;6.97;5.77;;;8.50;99.90;;;;;;4975144;28;20199;-85
2022/10/29 04:15:29;;;;;;;7.87;5.90;;;8.60;99.90;;;;;;4976366;28;20211;-84
2022/10/29 04:17:59;;;;;;;7.07;5.70;;;8.50;99.90;;;;;;4975504;28;20215;-86
2022/10/29 04:20:32;;;;;;;6.67;5.50;;;8.60;99.90;;;;;;4976199;28;20211;-85
2022/10/29 04:23:23;;;;;;;7.03;5.70;;;8.50;99.90;;;;;;4974652;28;20230;-85
2022/10/29 04:26:14;;;;;;;5.93;5.33;;;8.60;99.90;;;;;;4974524;28;20202;-85
2022/10/29 04:29:05;;;;;;;8.70;5.30;;;8.60;99.90;;;;;;4977229;28;20207;-85
2022/10/29 04:31:39;;;;;;;8.40;5.70;;;8.60;99.90;;;;;;4979150;28;20203;-85
2022/10/29 04:34:10;;;;;;;5.67;5.03;;;8.60;99.90;;;;;;4972588;28;20202;-85
2022/10/29 04:36:45;;;;;;;8.33;5.87;;;8.60;99.90;;;;;;4978518;28;20687;-84
2022/10/29 04:39:17;;;;;;;6.90;5.33;;;8.60;99.90;;;;;;4985104;28;20265;-85
2022/10/29 04:41:52;;;;;;;6.27;5.23;;;8.60;99.90;;;;;;4977819;28;20214;-85
2022/10/29 04:44:23;;;;;;;7.70;5.07;;;8.60;99.90;;;;;;4975909;28;20215;-85
2022/10/29 04:46:54;;;;;;;6.37;5.23;;;8.60;99.90;;;;;;4977276;28;20572;-85
2022/10/29 04:49:25;;;;;;;6.60;5.07;;;8.70;99.90;;;;;;4976363;28;20210;-85
2022/10/29 04:51:58;;;;;;;6.57;5.07;;;8.70;99.90;;;;;;4973060;28;20206;-84
2022/10/29 04:54:30;;;;;;;7.27;4.73;;;8.70;99.90;;;;;;4975768;28;20253;-85
2022/10/29 04:57:01;;;;;;;5.77;5.17;;;8.70;99.90;;;;;;4975194;28;20234;-85
2022/10/29 04:59:34;;;;;;;6.50;5.30;;;8.70;99.90;;;;;;4975782;28;20239;-85
2022/10/29 05:02:05;;;;;;;6.87;5.03;;;8.70;99.90;;;;;;4974737;28;20686;-84
2022/10/29 05:04:36;;;;;;;7.87;4.80;;;8.80;99.90;;;;;;4975059;28;20203;-85
2022/10/29 05:07:09;;;;;;;5.93;5.03;;;8.80;99.90;;;;;;4974908;28;20218;-85
2022/10/29 05:09:41;;;;;;;5.60;4.90;;;8.80;99.90;;;;;;4984648;28;20229;-84
2022/10/29 05:12:12;;;;;;;5.57;4.90;;;8.80;99.90;;;;;;4993566;28;20581;-85
2022/10/29 05:14:43;;;;;;;5.50;4.90;;;8.80;99.90;;;;;;4994605;28;20251;-86
2022/10/29 05:17:15;;;;;;;5.37;4.40;;;8.80;99.90;;;;;;4994225;28;20221;-86
2022/10/29 05:19:46;;;;;;;6.77;4.63;;;8.80;99.90;;;;;;4994252;28;20648;-85
2022/10/29 05:22:22;;;;;;;6.90;5.47;;;8.80;99.90;;;;;;4993843;28;20210;-85
2022/10/29 05:24:53;;;;;;;5.13;4.67;;;8.80;99.90;;;;;;4994573;28;20217;-83
2022/10/29 05:27:25;;;;;;;6.80;4.57;;;8.90;99.90;;;;;;4992527;28;20660;-85
2022/10/29 05:29:57;;;;;;;7.77;4.80;;;8.90;99.90;;;;;;4994644;28;20210;-85
2022/10/29 05:32:30;;;;;;;6.60;4.97;;;8.90;99.90;;;;;;4994462;28;20208;-85
2022/10/29 05:35:02;;;;;;;6.93;5.53;;;8.90;99.90;;;;;;4994943;28;20219;-86
2022/10/29 05:37:35;;;;;;;6.27;5.13;;;9.00;99.90;;;;;;4994185;28;20309;-85
2022/10/29 05:40:11;;;;;;;7.17;5.10;;;9.00;99.90;;;;;;4996884;28;20237;-85
2022/10/29 05:42:42;;;;;;;5.63;5.03;;;9.10;99.90;;;;;;4992315;28;20210;-85
2022/10/29 05:45:16;;;;;;;7.03;5.13;;;9.10;99.90;;;;;;5012001;28;20208;-85
2022/10/29 05:47:47;;;;;;;10.13;5.30;;;9.20;99.90;;;;;;5016449;28;20206;-84
2022/10/29 05:50:19;;;;;;;7.33;5.03;;;9.20;99.90;;;;;;5004561;28;20218;-84
2022/10/29 05:52:59;;;;;;;8.17;4.47;;;9.30;99.90;;;;;;4996943;28;20217;-85
2022/10/29 05:55:30;;;;;;;7.83;4.60;;;9.30;99.90;;;;;;5000103;28;20225;-85
2022/10/29 05:58:02;;;;;;;5.77;4.33;;;9.30;99.90;;;;;;5006961;28;20225;-85
2022/10/29 06:00:36;;;;;;;5.07;4.03;;;9.30;99.90;;;;;;5011995;28;20241;-84
2022/10/29 06:03:13;;;;;;;6.20;4.37;;;9.40;99.90;;;;;;5012850;28;20212;-85
2022/10/29 06:05:44;;;;;;;4.90;3.80;;;9.30;99.90;;;;;;5004854;28;20292;-85
2022/10/29 06:08:18;;;;;;;5.47;4.30;;;9.30;99.90;;;;;;4999782;28;20204;-85
2022/10/29 06:10:49;;;;;;;5.57;3.80;;;9.30;99.90;;;;;;4998899;28;20210;-86
2022/10/29 06:13:21;;;;;;;4.67;3.97;;;9.30;99.90;;;;;;4997460;28;20206;-85
2022/10/29 06:15:57;;;;;;;6.17;4.07;;;9.20;99.90;;;;;;4998119;28;20205;-85
2022/10/29 06:18:28;;;;;;;5.67;3.73;;;9.20;99.90;;;;;;4998969;28;20334;-86
2022/10/29 06:21:00;;;;;;;4.47;3.90;;;9.20;99.90;;;;;;4997901;28;20674;-85
2022/10/29 06:23:35;;;;;;;5.57;4.23;;;9.10;99.90;;;;;;4997399;28;20636;-85
2022/10/29 06:26:07;;;;;;;4.63;3.87;;;9.10;99.90;;;;;;4996502;28;20210;-86
2022/10/29 06:28:38;;;;;;;4.83;3.90;;;9.00;99.90;;;;;;4998274;28;20211;-85
2022/10/29 06:31:10;;;;;;;5.73;3.80;;;9.00;99.90;;;;;;4998628;28;20550;-85
2022/10/29 06:33:41;;;;;;;4.20;3.77;;;9.00;99.90;;;;;;4996916;28;20681;-85
2022/10/29 06:36:12;;;;;;;5.60;4.13;;;8.90;99.90;;;;;;4996328;28;20686;-86
2022/10/29 06:38:45;;;;;;;7.03;3.43;;;9.00;99.90;;;;;;4997679;28;20253;-85
2022/10/29 06:41:16;;;;;;;5.77;3.40;;;8.90;99.90;;;;;;4996628;28;20256;-84
2022/10/29 06:43:46;;;;;;;4.07;3.57;;;8.90;99.90;;;;;;4996507;28;20202;-85
2022/10/29 06:46:18;;;;;;;6.30;3.40;;;8.80;99.90;;;;;;4997289;28;20217;-85
2022/10/29 06:48:49;;;;;;;4.77;3.13;;;8.80;99.90;;;;;;4997314;28;20210;-85
2022/10/29 06:51:21;;;;;;;4.80;3.97;;;8.80;99.90;;;;;;4996131;28;20730;-85
2022/10/29 06:53:57;;;;;;;3.83;3.30;;;8.70;99.90;;;;;;4998514;28;20202;-85
2022/10/29 06:56:29;;;;;;;5.33;3.40;;;8.70;99.90;;;;;;4997028;28;20206;-85
2022/10/29 06:59:00;;;;;;;5.27;3.53;;;8.60;99.90;;;;;;4996981;28;20237;-85
2022/10/29 07:01:32;;;;;;;4.30;3.30;;;8.50;99.90;;;;;;4997136;28;20328;-85
2022/10/29 07:04:03;;;;;;;4.60;3.37;;;8.50;99.90;;;;;;4998536;28;20256;-85
2022/10/29 07:06:35;;;;;;;4.87;3.07;;;8.50;99.90;;;;;;4998254;28;20211;-86
2022/10/29 07:09:08;;;;;;;4.40;3.67;;;8.40;99.90;;;;;;4998677;28;20229;-84
2022/10/29 07:11:39;;;;;;;4.53;3.27;;;8.40;99.90;;;;;;4996085;28;20207;-84
2022/10/29 07:14:10;;;;;;;5.30;4.50;;;8.40;99.90;;;;;;4995404;28;20216;-84
2022/10/29 07:16:42;;;;;;;5.07;3.67;;;8.30;99.90;;;;;;4999497;28;20207;-85
2022/10/29 07:19:14;;;;;;;4.13;3.73;;;8.30;99.90;;;;;;4997031;28;20553;-86
2022/10/29 07:21:45;;;;;;;4.50;3.40;;;8.20;99.90;;;;;;5001215;28;20225;-85
2022/10/29 07:24:18;;;;;;;6.90;3.80;;;8.20;99.90;;;;;;4996619;28;20210;-85
2022/10/29 07:26:49;;;;;;;4.30;3.40;;;8.20;99.90;;;;;;4996576;28;20288;-85
2022/10/29 07:29:20;;;;;;;6.30;4.30;;;8.10;99.90;;;;;;4995584;28;20214;-85
2022/10/29 07:31:51;;;;;;;3.90;3.50;;;8.00;99.90;;;;;;4976390;28;20214;-86
2022/10/29 07:34:22;;;;;;;7.07;3.37;;;8.00;99.90;;;;;;4976425;28;20218;-85
2022/10/29 07:36:53;;;;;;;5.03;3.83;;;7.90;99.90;;;;;;5015011;28;20205;-85
2022/10/29 07:39:26;;;;;;;4.90;3.80;;;8.00;99.90;;;;;;5006859;28;20216;-86
2022/10/29 07:41:57;;;;;;;5.23;3.37;;;8.00;99.90;;;;;;4995628;28;20300;-85
2022/10/29 07:44:28;;;;;;;5.60;4.07;;;7.90;99.90;;;;;;4996347;28;20218;-84
2022/10/29 07:47:01;;;;;;;4.20;3.47;;;8.00;99.90;;;;;;4996423;28;20583;-86
2022/10/29 07:49:32;;;;;;;6.73;3.97;;;8.00;99.90;;;;;;4995980;28;20301;-85
2022/10/29 07:52:03;;;;;;;5.20;4.20;;;8.10;99.90;;;;;;4995077;28;20206;-84
2022/10/29 07:54:37;;;;;;;5.30;3.70;;;8.20;99.90;;;;;;4995445;28;20209;-84
2022/10/29 07:57:08;;;;;;;5.40;4.13;;;8.30;99.90;;;;;;4996897;28;20214;-84
2022/10/29 07:59:39;;;;;;;5.70;4.30;;;8.30;99.90;;;;;;4994982;28;20221;-85
2022/10/29 08:02:11;;;;;;;5.97;4.27;;;8.30;99.90;;;;;;4994390;28;20221;-84
2022/10/29 08:04:44;;;;;;;5.90;4.27;;;8.30;99.90;;;;;;4995211;28;20210;-85
2022/10/29 08:07:16;;;;;;;7.53;4.07;;;8.30;99.90;;;;;;4997279;28;20519;-84
2022/10/29 08:09:50;;;;;;;4.60;3.93;;;8.30;99.90;;;;;;4984428;28;20210;-86
2022/10/29 08:12:21;;;;;;;4.27;3.87;;;8.30;99.90;;;;;;4977172;28;20215;-84
2022/10/29 08:14:51;;;;;;;5.93;3.80;;;8.20;99.90;;;;;;4977733;28;20298;-85
2022/10/29 08:17:22;;;;;;;4.57;3.43;;;8.30;99.90;;;;;;4977790;28;20219;-86
2022/10/29 08:19:53;;;;;;;3.80;3.40;;;8.20;99.90;;;;;;4977430;28;20207;-84
2022/10/29 08:22:23;;;;;;;4.57;3.33;;;8.20;99.90;;;;;;4975978;28;20305;-85
2022/10/29 08:24:56;;;;;;;5.07;3.37;;;8.10;99.90;;;;;;4977785;28;20203;-84
2022/10/29 08:27:27;;;;;;;4.80;3.17;;;8.10;99.90;;;;;;4976068;28;20210;-85
2022/10/29 08:29:58;;;;;;;3.47;2.87;;;7.90;99.90;;;;;;4982377;28;20214;-84
2022/10/29 08:32:29;;;;;;;5.50;3.30;;;7.90;99.90;;;;;;4994275;28;20206;-84
2022/10/29 08:34:59;;;;;;;5.63;3.73;;;7.80;99.90;;;;;;4994586;28;20218;-85
2022/10/29 08:37:31;;;;;;;5.07;3.80;;;7.70;99.90;;;;;;4994691;28;20225;-84
2022/10/29 08:40:04;;;;;;;5.30;4.37;;;7.80;99.90;;;;;;4993541;28;20558;-85
2022/10/29 08:42:49;;;;;;;5.43;4.30;;;7.70;99.90;;;;;;4994482;28;20211;-85
2022/10/29 08:45:28;;;;;;;5.00;3.87;;;7.70;99.90;;;;;;4994537;28;20225;-84
2022/10/29 08:48:23;;;;;;;5.30;4.33;;;7.70;99.90;;;;;;4998192;28;20293;-84
2022/10/29 08:51:01;;;;;;;5.70;3.80;;;7.80;99.90;;;;;;4997410;28;20203;-85
2022/10/29 08:53:37;;;;;;;4.17;3.73;;;7.80;99.90;;;;;;4994096;28;20194;-85
2022/10/29 08:56:18;;;;;;;4.00;3.47;;;7.80;99.90;;;;;;4995106;28;20214;-84
2022/10/29 08:58:58;;;;;;;6.20;3.53;;;7.90;99.90;;;;;;4993761;28;20221;-85
2022/10/29 09:01:29;;;;;;;4.27;3.67;;;7.90;99.90;;;;;;4994788;28;20236;-84
2022/10/29 09:04:04;;;;;;;3.77;3.40;;;7.90;99.90;;;;;;4994141;28;20210;-84
2022/10/29 09:06:44;;;;;;;4.97;3.67;;;7.90;99.90;;;;;;4983410;28;20265;-85
2022/10/29 09:09:31;;;;;;;8.27;3.60;;;7.90;99.90;;;;;;4983141;28;20218;-85
2022/10/29 09:12:34;;;;;;;4.63;3.30;;;8.00;99.90;;;;;;4993197;28;20206;-86
2022/10/29 09:15:31;;;;;;;3.87;3.47;;;8.00;99.90;;;;;;4997266;28;20210;-85
2022/10/29 09:18:19;;;;;;;3.27;2.97;;;8.00;99.90;;;;;;4996751;28;20210;-86
2022/10/29 09:20:59;;;;;;;5.60;3.40;;;8.00;99.90;;;;;;4995679;28;20234;-85
2022/10/29 09:23:45;;;;;;;3.70;3.40;;;8.00;99.90;;;;;;4993471;28;20213;-84
2022/10/29 09:26:23;;;;;;;4.40;3.60;;;8.10;99.90;;;;;;4994784;28;20652;-85
2022/10/29 09:29:19;;;;;;;5.47;3.67;;;8.10;99.90;;;;;;4994390;28;20228;-85
2022/10/29 09:31:55;;;;;;;4.00;3.60;;;8.10;99.90;;;;;;4974564;28;20211;-86
2022/10/29 09:34:32;;;;;;;4.57;4.00;;;8.00;99.90;;;;;;4974880;28;20210;-85
2022/10/29 09:37:11;;;;;;;6.90;4.33;;;7.90;99.90;;;;;;4974745;28;20305;-86
2022/10/29 09:39:43;;;;;;;4.10;3.70;;;7.90;99.90;;;;;;4974936;28;20211;-84
2022/10/29 09:42:18;;;;;;;5.00;3.80;;;7.90;99.90;;;;;;4973991;28;20279;-85
2022/10/29 09:44:53;;;;;;;3.93;3.30;;;8.00;99.90;;;;;;5013895;28;20201;-85
2022/10/29 09:47:37;;;;;;;4.93;4.00;;;8.00;99.90;;;;;;5014448;28;20209;-84
2022/10/29 09:50:18;;;;;;;6.37;3.83;;;8.00;99.90;;;;;;5013730;28;20213;-85
2022/10/29 09:52:50;;;;;;;4.70;3.80;;;8.00;99.90;;;;;;5011721;28;20210;-85
2022/10/29 09:55:25;;;;;;;5.70;4.10;;;8.00;99.90;;;;;;5013312;28;20574;-85
2022/10/29 09:57:58;;;;;;;4.03;3.63;;;8.00;99.90;;;;;;5012172;28;20263;-85
2022/10/29 10:00:32;;;;;;;6.83;4.10;;;8.00;99.90;;;;;;4974483;28;20211;-85
2022/10/29 10:03:13;;;;;;;5.20;4.00;;;8.00;99.90;;;;;;4973092;28;20238;-85
2022/10/29 10:06:01;;;;;;;5.47;4.67;;;8.00;99.90;;;;;;4974253;28;20207;-85
2022/10/29 10:08:33;;;;;;;5.30;4.80;;;8.00;99.90;;;;;;4985831;28;20214;-85
2022/10/29 10:11:05;;;;;;;5.90;4.80;;;8.00;99.90;;;;;;4974511;28;20207;-86
2022/10/29 10:13:50;;;;;;;6.30;4.87;;;7.90;99.90;;;;;;4975655;28;20207;-85
2022/10/29 10:16:25;;;;;;;5.57;5.07;;;8.00;99.90;;;;;;4976506;28;20656;-86
2022/10/29 10:18:59;;;;;;;5.20;4.70;;;7.90;99.90;;;;;;4980565;28;20289;-84
2022/10/29 10:21:31;;;;;;;7.60;5.30;;;7.90;99.90;;;;;;4994786;28;20236;-84
2022/10/29 10:24:02;;;;;;;5.83;5.00;;;7.90;99.90;;;;;;4994825;28;20210;-84
2022/10/29 10:26:38;;;;;;;5.07;4.57;;;7.80;99.90;;;;;;4993643;28;20218;-84
2022/10/29 10:29:14;;;;;;;5.70;5.17;;;7.80;99.90;;;;;;4994229;28;20241;-84
2022/10/29 10:31:46;;;;;;;5.30;4.53;;;7.80;99.90;;;;;;4993959;28;20198;-83
2022/10/29 10:34:22;;;;;;;5.83;5.10;;;7.80;99.90;;;;;;4993569;28;20206;-85
2022/10/29 10:36:55;;;;;;;6.43;5.13;;;7.80;99.90;;;;;;4994282;28;20210;-85
2022/10/29 10:39:31;;;;;;;6.77;4.90;;;7.70;99.90;;;;;;4994700;28;20221;-84
2022/10/29 10:42:06;;;;;;;6.73;4.77;;;7.70;99.90;;;;;;4992889;28;20242;-85
2022/10/29 10:44:37;;;;;;;5.20;4.00;;;7.70;99.90;;;;;;4992995;28;20216;-85
2022/10/29 10:47:09;;;;;;;4.47;4.03;;;7.70;99.90;;;;;;4998084;28;20206;-85
2022/10/29 10:49:44;;;;;;;6.50;4.07;;;7.70;99.90;;;;;;4997758;28;20274;-86
2022/10/29 10:52:21;;;;;;;8.23;4.47;;;7.60;99.90;;;;;;4996156;28;20210;-85
2022/10/29 10:55:01;;;;;;;5.70;4.57;;;7.60;99.90;;;;;;4996085;28;20205;-84
2022/10/29 10:57:38;;;;;;;5.27;4.77;;;7.60;99.90;;;;;;4997159;28;20226;-84
2022/10/29 11:00:19;;;;;;;7.47;4.50;;;7.50;99.90;;;;;;4997329;28;20244;-85
2022/10/29 11:02:55;;;;;;;4.90;4.30;;;7.50;99.90;;;;;;4996019;28;20332;-84
2022/10/29 11:05:33;;;;;;;7.40;4.20;;;7.50;99.90;;;;;;4997374;28;20555;-85
2022/10/29 11:08:13;;;;;;;6.70;4.10;;;7.50;99.90;;;;;;4997481;28;20654;-86
2022/10/29 11:10:50;;;;;;;4.43;3.90;;;7.50;99.90;;;;;;5004478;28;20645;-84
2022/10/29 11:13:24;;;;;;;5.70;4.37;;;7.50;99.90;;;;;;4999450;28;20209;-84
2022/10/29 11:15:59;;;;;;;4.83;4.07;;;7.50;99.90;;;;;;4996960;28;20217;-86
2022/10/29 11:18:37;;;;;;;5.43;4.47;;;7.50;99.90;;;;;;4997685;28;20209;-85
2022/10/29 11:21:17;;;;;;;5.07;4.47;;;7.40;99.90;;;;;;4997443;28;20206;-85
2022/10/29 11:23:57;;;;;;;5.53;4.57;;;7.30;99.90;;;;;;4995910;28;20214;-84
2022/10/29 11:26:35;;;;;;;6.30;5.30;;;7.20;99.90;;;;;;4996453;28;20228;-85
2022/10/29 11:29:15;;;;;;;6.00;5.37;;;7.10;99.90;;;;;;4996764;28;20213;-85
2022/10/29 11:31:54;;;;;;;6.23;4.47;;;7.20;99.90;;;;;;4977764;28;20203;-84
2022/10/29 11:34:31;;;;;;;7.63;5.00;;;7.20;99.90;;;;;;4976463;28;20217;-85
2022/10/29 11:37:25;;;;;;;6.57;5.90;;;7.10;99.90;;;;;;4978003;28;20250;-85
2022/10/29 11:40:02;;;;;;;8.60;6.37;;;7.10;99.90;;;;;;4990852;28;20222;-85
2022/10/29 11:42:35;;;;;;;9.07;6.47;;;7.10;99.90;;;;;;4997379;28;20333;-85
2022/10/29 11:45:11;;;;;;;8.47;6.73;;;7.10;99.90;;;;;;5002044;28;20225;-85
2022/10/29 11:47:59;;;;;;;7.90;7.00;;;7.10;99.90;;;;;;5013364;28;20272;-83
2022/10/29 11:50:39;;;;;;;10.57;6.80;;;7.10;99.90;;;;;;5014034;28;20209;-83
2022/10/29 11:53:31;;;;;;;11.97;6.70;;;7.10;99.90;;;;;;5009284;28;20214;-85
2022/10/29 11:56:11;;;;;;;9.73;7.20;;;7.10;99.90;;;;;;5000592;28;20539;-86
2022/10/29 11:58:49;;;;;;;9.00;6.90;;;7.20;99.90;;;;;;4995506;28;20264;-85
2022/10/29 12:01:33;;;;;;;8.47;6.70;;;7.20;99.90;;;;;;4996641;28;20206;-85
2022/10/29 12:04:22;;;;;;;10.90;6.80;;;7.20;99.90;;;;;;4995168;28;20241;-84
2022/10/29 12:07:16;;;;;;;6.43;5.60;;;7.20;99.90;;;;;;4995952;28;20256;-85
2022/10/29 12:10:16;;;;;;;7.30;5.70;;;7.20;99.90;;;;;;4995497;28;20214;-84
2022/10/29 12:12:57;;;;;;;5.63;5.03;;;7.20;99.90;;;;;;4994530;28;20211;-85
2022/10/29 12:15:33;;;;;;;6.80;5.30;;;7.10;99.90;;;;;;4995535;28;20206;-84
2022/10/29 12:18:15;;;;;;;6.97;5.90;;;7.10;99.90;;;;;;4997574;28;20209;-84
2022/10/29 12:20:53;;;;;;;7.67;5.40;;;7.10;99.90;;;;;;4997337;28;20218;-84
2022/10/29 12:23:34;;;;;;;6.50;5.80;;;7.10;99.90;;;;;;4996789;28;20241;-84
2022/10/29 12:26:18;;;;;;;6.23;5.47;;;7.00;99.90;;;;;;4993788;28;20543;-85
2022/10/29 12:28:57;;;;;;;6.17;5.37;;;7.00;99.90;;;;;;4997825;28;20206;-84
2022/10/29 12:31:35;;;;;;;6.57;5.70;;;7.00;99.90;;;;;;4997852;28;20222;-84
2022/10/29 12:34:15;;;;;;;7.93;5.93;;;7.00;99.90;;;;;;4994401;28;20217;-85
2022/10/29 12:36:53;;;;;;;6.67;5.63;;;7.00;99.90;;;;;;4996637;28;20206;-84
2022/10/29 12:39:31;;;;;;;6.10;5.50;;;7.00;99.90;;;;;;4993587;28;20214;-85
2022/10/29 12:42:07;;;;;;;7.67;5.93;;;7.10;99.90;;;;;;4993874;28;20210;-85
2022/10/29 12:44:47;;;;;;;7.33;5.97;;;7.00;99.90;;;;;;4995422;28;20214;-84
2022/10/29 12:47:21;;;;;;;7.60;5.20;;;7.00;99.90;;;;;;4995956;28;20210;-85
2022/10/29 12:50:02;;;;;;;7.80;5.43;;;7.00;99.90;;;;;;4995361;28;20224;-84
2022/10/29 12:52:39;;;;;;;5.93;5.33;;;6.90;99.90;;;;;;4992482;28;20313;-85
2022/10/29 12:55:13;;;;;;;5.93;5.33;;;6.90;99.90;;;;;;4994756;28;20208;-84
2022/10/29 12:57:48;;;;;;;7.80;5.90;;;6.90;99.90;;;;;;4993529;28;20295;-86
2022/10/29 13:00:48;;;;;;;7.90;5.40;;;6.90;99.90;;;;;;4993971;28;20237;-84
2022/10/29 13:04:01;;;;;;;6.47;4.67;;;6.90;99.90;;;;;;4992525;28;20242;-85
2022/10/29 13:06:59;;;;;;;9.43;5.10;;;6.80;99.90;;;;;;4993701;28;20245;-84
2022/10/29 13:09:32;;;;;;;7.77;5.50;;;6.80;99.90;;;;;;4993352;28;20221;-84
2022/10/29 13:12:08;;;;;;;8.30;5.57;;;6.80;99.90;;;;;;4992980;28;20217;-85
2022/10/29 13:14:47;;;;;;;6.37;5.57;;;6.70;99.90;;;;;;4993902;28;20224;-84
2022/10/29 13:17:31;;;;;;;6.33;5.30;;;6.70;99.90;;;;;;4994481;28;20206;-84
2022/10/29 13:20:05;;;;;;;6.60;5.50;;;6.70;99.90;;;;;;4993751;28;20206;-84
2022/10/29 13:22:55;;;;;;;6.07;5.40;;;6.80;99.90;;;;;;4992986;28;20659;-85
2022/10/29 13:25:51;;;;;;;6.40;5.47;;;6.70;99.90;;;;;;4994133;28;20221;-85
2022/10/29 13:28:50;;;;;;;6.57;5.30;;;6.70;99.90;;;;;;4994337;28;20225;-84
2022/10/29 13:31:48;;;;;;;5.50;5.00;;;6.60;99.90;;;;;;4994800;28;20210;-85
2022/10/29 13:34:51;;;;;;;5.80;5.20;;;6.70;99.90;;;;;;4993062;28;20209;-85
2022/10/29 13:38:02;;;;;;;6.67;5.40;;;6.70;99.90;;;;;;4994823;28;20225;-86
2022/10/29 13:41:19;;;;;;;6.13;5.53;;;6.70;99.90;;;;;;4993806;28;20221;-85